sensor_id;sensor_type;location;lat;lon;timestamp;temperature;humidity
23251;DHT22;11794;49.730;10.088;2022-08-11T00:01:04;17.90;81.70
23251;DHT22;11794;49.730;10.088;2022-08-11T00:03:30;17.80;83.00
23251;DHT22;11794;49.730;10.088;2022-08-11T00:05:56;17.70;82.30
23251;DHT22;11794;49.730;10.088;2022-08-11T00:08:28;17.70;82.20
23251;DHT22;11794;49.730;10.088;2022-08-11T00:10:57;17.70;82.90
23251;DHT22;11794;49.730;10.088;2022-08-11T00:13:36;17.60;83.60
23251;DHT22;11794;49.730;10.088;2022-08-11T00:16:11;17.50;84.60
23251;DHT22;11794;49.730;10.088;2022-08-11T00:18:42;17.50;82.50
23251;DHT22;11794;49.730;10.088;2022-08-11T00:21:09;17.50;83.90
23251;DHT22;11794;49.730;10.088;2022-08-11T00:23:41;17.40;83.80
23251;DHT22;11794;49.730;10.088;2022-08-11T00:26:08;17.30;84.70
23251;DHT22;11794;49.730;10.088;2022-08-11T00:28:35;17.20;84.60
23251;DHT22;11794;49.730;10.088;2022-08-11T00:31:04;17.20;85.10
23251;DHT22;11794;49.730;10.088;2022-08-11T00:33:39;17.20;83.40
23251;DHT22;11794;49.730;10.088;2022-08-11T00:36:06;17.30;82.90
23251;DHT22;11794;49.730;10.088;2022-08-11T00:38:35;17.20;84.50
23251;DHT22;11794;49.730;10.088;2022-08-11T00:47:20;17.10;85.60
23251;DHT22;11794;49.730;10.088;2022-08-11T00:53:00;16.80;87.30
23251;DHT22;11794;49.730;10.088;2022-08-11T00:58:34;16.60;86.40
23251;DHT22;11794;49.730;10.088;2022-08-11T01:12:28;16.20;89.80
23251;DHT22;11794;49.730;10.088;2022-08-11T01:31:49;16.10;90.00
23251;DHT22;11794;49.730;10.088;2022-08-11T01:48:06;15.90;90.40
23251;DHT22;11794;49.730;10.088;2022-08-11T01:51:10;15.90;91.00
23251;DHT22;11794;49.730;10.088;2022-08-11T01:58:49;15.90;90.90
23251;DHT22;11794;49.730;10.088;2022-08-11T02:04:25;15.60;91.30
23251;DHT22;11794;49.730;10.088;2022-08-11T02:12:53;15.50;91.90
23251;DHT22;11794;49.730;10.088;2022-08-11T02:15:34;15.40;92.40
23251;DHT22;11794;49.730;10.088;2022-08-11T02:18:26;15.30;92.80
23251;DHT22;11794;49.730;10.088;2022-08-11T02:21:15;15.30;92.70
23251;DHT22;11794;49.730;10.088;2022-08-11T02:24:10;15.30;93.00
23251;DHT22;11794;49.730;10.088;2022-08-11T02:27:13;15.20;92.80
23251;DHT22;11794;49.730;10.088;2022-08-11T02:29:50;15.10;92.90
23251;DHT22;11794;49.730;10.088;2022-08-11T02:32:24;15.30;93.00
23251;DHT22;11794;49.730;10.088;2022-08-11T02:50:22;15.10;92.90
23251;DHT22;11794;49.730;10.088;2022-08-11T02:53:18;15.10;92.90
23251;DHT22;11794;49.730;10.088;2022-08-11T02:56:05;15.10;93.10
23251;DHT22;11794;49.730;10.088;2022-08-11T03:01:06;15.10;94.00
23251;DHT22;11794;49.730;10.088;2022-08-11T03:04:02;15.00;94.00
23251;DHT22;11794;49.730;10.088;2022-08-11T03:06:38;15.00;94.10
23251;DHT22;11794;49.730;10.088;2022-08-11T03:09:16;15.00;93.90
23251;DHT22;11794;49.730;10.088;2022-08-11T03:11:51;15.00;93.90
23251;DHT22;11794;49.730;10.088;2022-08-11T03:14:52;14.90;94.30
23251;DHT22;11794;49.730;10.088;2022-08-11T03:25:56;14.90;93.90
23251;DHT22;11794;49.730;10.088;2022-08-11T03:28:35;15.10;93.40
23251;DHT22;11794;49.730;10.088;2022-08-11T03:31:25;15.20;93.50
23251;DHT22;11794;49.730;10.088;2022-08-11T03:34:02;15.10;93.90
23251;DHT22;11794;49.730;10.088;2022-08-11T03:37:04;15.10;93.90
23251;DHT22;11794;49.730;10.088;2022-08-11T03:42:19;15.20;94.10
23251;DHT22;11794;49.730;10.088;2022-08-11T03:53:39;15.10;94.60
23251;DHT22;11794;49.730;10.088;2022-08-11T04:01:36;14.90;95.40
23251;DHT22;11794;49.730;10.088;2022-08-11T04:04:31;14.90;94.90
23251;DHT22;11794;49.730;10.088;2022-08-11T04:07:24;14.90;95.50
23251;DHT22;11794;49.730;10.088;2022-08-11T04:21:56;14.80;96.40
23251;DHT22;11794;49.730;10.088;2022-08-11T04:25:07;14.80;96.50
23251;DHT22;11794;49.730;10.088;2022-08-11T04:27:57;14.90;96.00
23251;DHT22;11794;49.730;10.088;2022-08-11T04:30:54;14.90;96.50
23251;DHT22;11794;49.730;10.088;2022-08-11T04:39:38;15.00;96.30
23251;DHT22;11794;49.730;10.088;2022-08-11T04:48:28;15.20;96.80
23251;DHT22;11794;49.730;10.088;2022-08-11T04:54:52;15.30;97.00
23251;DHT22;11794;49.730;10.088;2022-08-11T04:57:46;15.30;97.10
23251;DHT22;11794;49.730;10.088;2022-08-11T05:00:55;15.30;96.80
23251;DHT22;11794;49.730;10.088;2022-08-11T05:04:05;15.40;96.70
23251;DHT22;11794;49.730;10.088;2022-08-11T05:12:41;15.70;96.70
23251;DHT22;11794;49.730;10.088;2022-08-11T05:15:12;15.70;96.80
23251;DHT22;11794;49.730;10.088;2022-08-11T05:18:01;15.90;96.50
23251;DHT22;11794;49.730;10.088;2022-08-11T05:20:51;16.00;96.70
23251;DHT22;11794;49.730;10.088;2022-08-11T05:23:42;16.10;96.30
23251;DHT22;11794;49.730;10.088;2022-08-11T05:26:29;16.20;96.10
23251;DHT22;11794;49.730;10.088;2022-08-11T05:29:44;16.30;96.00
23251;DHT22;11794;49.730;10.088;2022-08-11T05:32:34;16.40;95.80
23251;DHT22;11794;49.730;10.088;2022-08-11T05:35:37;16.50;95.50
23251;DHT22;11794;49.730;10.088;2022-08-11T05:38:24;16.70;95.30
23251;DHT22;11794;49.730;10.088;2022-08-11T05:41:13;16.80;95.20
23251;DHT22;11794;49.730;10.088;2022-08-11T05:44:01;17.00;95.00
23251;DHT22;11794;49.730;10.088;2022-08-11T05:46:47;17.10;94.80
23251;DHT22;11794;49.730;10.088;2022-08-11T05:49:32;17.30;94.50
23251;DHT22;11794;49.730;10.088;2022-08-11T05:52:22;17.40;94.30
23251;DHT22;11794;49.730;10.088;2022-08-11T05:55:07;17.60;93.70
23251;DHT22;11794;49.730;10.088;2022-08-11T05:57:56;17.80;93.40
23251;DHT22;11794;49.730;10.088;2022-08-11T06:00:23;17.90;93.30
23251;DHT22;11794;49.730;10.088;2022-08-11T06:02:52;18.10;93.00
23251;DHT22;11794;49.730;10.088;2022-08-11T06:05:21;18.30;92.80
23251;DHT22;11794;49.730;10.088;2022-08-11T06:07:48;18.40;92.80
23251;DHT22;11794;49.730;10.088;2022-08-11T06:10:34;18.60;92.50
23251;DHT22;11794;49.730;10.088;2022-08-11T06:13:01;18.70;92.00
23251;DHT22;11794;49.730;10.088;2022-08-11T06:15:30;18.80;91.70
23251;DHT22;11794;49.730;10.088;2022-08-11T06:17:58;19.00;91.40
23251;DHT22;11794;49.730;10.088;2022-08-11T06:20:24;19.10;91.50
23251;DHT22;11794;49.730;10.088;2022-08-11T06:22:58;19.20;91.20
23251;DHT22;11794;49.730;10.088;2022-08-11T06:25:33;19.30;90.90
23251;DHT22;11794;49.730;10.088;2022-08-11T06:28:02;19.40;90.70
23251;DHT22;11794;49.730;10.088;2022-08-11T06:30:37;19.60;90.40
23251;DHT22;11794;49.730;10.088;2022-08-11T06:33:29;19.70;90.20
23251;DHT22;11794;49.730;10.088;2022-08-11T06:38:55;20.00;89.00
23251;DHT22;11794;49.730;10.088;2022-08-11T06:41:26;20.20;87.90
23251;DHT22;11794;49.730;10.088;2022-08-11T06:49:08;20.50;87.20
23251;DHT22;11794;49.730;10.088;2022-08-11T06:52:03;20.70;86.40
23251;DHT22;11794;49.730;10.088;2022-08-11T06:54:34;20.90;86.30
23251;DHT22;11794;49.730;10.088;2022-08-11T06:57:02;21.10;85.50
23251;DHT22;11794;49.730;10.088;2022-08-11T06:59:47;21.20;85.10
23251;DHT22;11794;49.730;10.088;2022-08-11T07:02:36;21.40;84.50
23251;DHT22;11794;49.730;10.088;2022-08-11T07:05:10;21.60;84.00
23251;DHT22;11794;49.730;10.088;2022-08-11T07:13:53;22.00;82.40
23251;DHT22;11794;49.730;10.088;2022-08-11T07:16:41;22.10;81.30
23251;DHT22;11794;49.730;10.088;2022-08-11T07:19:08;22.30;81.00
23251;DHT22;11794;49.730;10.088;2022-08-11T07:21:55;22.40;81.00
23251;DHT22;11794;49.730;10.088;2022-08-11T07:24:45;22.60;80.50
23251;DHT22;11794;49.730;10.088;2022-08-11T07:27:42;22.90;79.30
23251;DHT22;11794;49.730;10.088;2022-08-11T07:30:26;23.10;78.80
23251;DHT22;11794;49.730;10.088;2022-08-11T07:32:54;23.30;78.30
23251;DHT22;11794;49.730;10.088;2022-08-11T07:35:27;23.30;78.20
23251;DHT22;11794;49.730;10.088;2022-08-11T07:37:59;23.40;77.20
23251;DHT22;11794;49.730;10.088;2022-08-11T07:40:26;23.50;77.70
23251;DHT22;11794;49.730;10.088;2022-08-11T07:42:54;23.70;77.40
23251;DHT22;11794;49.730;10.088;2022-08-11T07:45:22;24.00;76.60
23251;DHT22;11794;49.730;10.088;2022-08-11T07:48:08;24.30;75.80
23251;DHT22;11794;49.730;10.088;2022-08-11T07:50:54;24.50;75.20
23251;DHT22;11794;49.730;10.088;2022-08-11T07:53:39;24.60;74.30
23251;DHT22;11794;49.730;10.088;2022-08-11T07:56:05;25.00;72.60
23251;DHT22;11794;49.730;10.088;2022-08-11T07:58:34;25.40;72.40
23251;DHT22;11794;49.730;10.088;2022-08-11T08:01:23;25.90;70.30
23251;DHT22;11794;49.730;10.088;2022-08-11T08:04:12;26.50;68.90
23251;DHT22;11794;49.730;10.088;2022-08-11T08:06:57;27.00;67.20
23251;DHT22;11794;49.730;10.088;2022-08-11T08:09:43;27.50;66.60
23251;DHT22;11794;49.730;10.088;2022-08-11T08:12:28;27.70;66.00
23251;DHT22;11794;49.730;10.088;2022-08-11T08:15:15;28.00;66.00
23251;DHT22;11794;49.730;10.088;2022-08-11T08:18:03;28.70;64.80
23251;DHT22;11794;49.730;10.088;2022-08-11T08:20:47;28.80;63.40
23251;DHT22;11794;49.730;10.088;2022-08-11T08:23:19;29.30;62.30
23251;DHT22;11794;49.730;10.088;2022-08-11T08:25:58;29.80;60.90
23251;DHT22;11794;49.730;10.088;2022-08-11T08:28:27;29.80;59.70
23251;DHT22;11794;49.730;10.088;2022-08-11T08:30:53;30.00;60.00
23251;DHT22;11794;49.730;10.088;2022-08-11T08:33:27;29.70;56.20
23251;DHT22;11794;49.730;10.088;2022-08-11T08:35:56;29.50;57.20
23251;DHT22;11794;49.730;10.088;2022-08-11T08:38:47;29.40;58.00
23251;DHT22;11794;49.730;10.088;2022-08-11T08:41:16;29.60;55.10
23251;DHT22;11794;49.730;10.088;2022-08-11T08:43:47;29.30;55.10
23251;DHT22;11794;49.730;10.088;2022-08-11T08:46:20;29.50;56.90
23251;DHT22;11794;49.730;10.088;2022-08-11T08:48:47;29.90;55.90
23251;DHT22;11794;49.730;10.088;2022-08-11T08:51:13;30.30;55.40
23251;DHT22;11794;49.730;10.088;2022-08-11T08:54:09;30.50;54.30
23251;DHT22;11794;49.730;10.088;2022-08-11T08:56:39;30.80;54.20
23251;DHT22;11794;49.730;10.088;2022-08-11T08:59:05;31.00;52.50
23251;DHT22;11794;49.730;10.088;2022-08-11T09:01:37;30.80;53.30
23251;DHT22;11794;49.730;10.088;2022-08-11T09:04:08;30.60;54.20
23251;DHT22;11794;49.730;10.088;2022-08-11T09:06:38;30.60;54.00
23251;DHT22;11794;49.730;10.088;2022-08-11T09:09:05;30.70;53.70
23251;DHT22;11794;49.730;10.088;2022-08-11T09:11:34;30.80;53.40
23251;DHT22;11794;49.730;10.088;2022-08-11T09:14:16;30.90;54.30
23251;DHT22;11794;49.730;10.088;2022-08-11T09:16:43;31.30;53.70
23251;DHT22;11794;49.730;10.088;2022-08-11T09:19:09;31.80;53.20
23251;DHT22;11794;49.730;10.088;2022-08-11T09:21:41;31.90;52.40
23251;DHT22;11794;49.730;10.088;2022-08-11T09:24:07;31.40;53.10
23251;DHT22;11794;49.730;10.088;2022-08-11T09:26:52;31.50;52.20
23251;DHT22;11794;49.730;10.088;2022-08-11T09:29:26;31.70;52.10
23251;DHT22;11794;49.730;10.088;2022-08-11T09:31:53;31.90;52.40
23251;DHT22;11794;49.730;10.088;2022-08-11T09:34:19;32.20;51.60
23251;DHT22;11794;49.730;10.088;2022-08-11T09:36:45;32.30;51.50
23251;DHT22;11794;49.730;10.088;2022-08-11T09:39:30;32.60;51.40
23251;DHT22;11794;49.730;10.088;2022-08-11T09:42:16;32.00;52.30
23251;DHT22;11794;49.730;10.088;2022-08-11T09:44:44;31.60;52.20
23251;DHT22;11794;49.730;10.088;2022-08-11T09:47:20;31.80;52.10
23251;DHT22;11794;49.730;10.088;2022-08-11T09:49:47;32.10;52.20
23251;DHT22;11794;49.730;10.088;2022-08-11T09:52:14;32.20;51.00
23251;DHT22;11794;49.730;10.088;2022-08-11T09:54:41;32.20;51.40
23251;DHT22;11794;49.730;10.088;2022-08-11T09:57:07;32.10;51.00
23251;DHT22;11794;49.730;10.088;2022-08-11T09:59:52;32.40;51.60
23251;DHT22;11794;49.730;10.088;2022-08-11T10:02:24;32.80;50.20
23251;DHT22;11794;49.730;10.088;2022-08-11T10:04:51;32.90;48.60
23251;DHT22;11794;49.730;10.088;2022-08-11T10:07:19;32.80;48.30
23251;DHT22;11794;49.730;10.088;2022-08-11T10:09:55;32.70;48.30
23251;DHT22;11794;49.730;10.088;2022-08-11T10:12:30;32.80;47.30
23251;DHT22;11794;49.730;10.088;2022-08-11T10:15:07;33.10;48.60
23251;DHT22;11794;49.730;10.088;2022-08-11T10:18:03;32.90;49.00
23251;DHT22;11794;49.730;10.088;2022-08-11T10:20:48;33.20;48.60
23251;DHT22;11794;49.730;10.088;2022-08-11T10:23:14;33.50;48.10
23251;DHT22;11794;49.730;10.088;2022-08-11T10:25:59;33.50;46.90
23251;DHT22;11794;49.730;10.088;2022-08-11T10:28:44;33.40;47.80
23251;DHT22;11794;49.730;10.088;2022-08-11T10:31:11;33.70;47.00
23251;DHT22;11794;49.730;10.088;2022-08-11T10:33:57;33.60;46.80
23251;DHT22;11794;49.730;10.088;2022-08-11T10:36:40;33.30;47.70
23251;DHT22;11794;49.730;10.088;2022-08-11T10:39:18;33.20;47.90
23251;DHT22;11794;49.730;10.088;2022-08-11T10:41:46;33.30;48.00
23251;DHT22;11794;49.730;10.088;2022-08-11T10:44:42;33.40;47.60
23251;DHT22;11794;49.730;10.088;2022-08-11T10:47:11;33.70;46.90
23251;DHT22;11794;49.730;10.088;2022-08-11T10:49:56;34.00;47.20
23251;DHT22;11794;49.730;10.088;2022-08-11T10:52:41;34.20;47.80
23251;DHT22;11794;49.730;10.088;2022-08-11T10:55:27;34.50;47.10
23251;DHT22;11794;49.730;10.088;2022-08-11T10:58:13;34.70;46.10
23251;DHT22;11794;49.730;10.088;2022-08-11T11:00:58;34.40;45.70
23251;DHT22;11794;49.730;10.088;2022-08-11T11:03:25;34.40;46.90
23251;DHT22;11794;49.730;10.088;2022-08-11T11:05:54;34.60;46.50
23251;DHT22;11794;49.730;10.088;2022-08-11T11:08:25;34.50;46.30
23251;DHT22;11794;49.730;10.088;2022-08-11T11:11:12;34.70;47.00
23251;DHT22;11794;49.730;10.088;2022-08-11T11:13:42;35.20;45.60
23251;DHT22;11794;49.730;10.088;2022-08-11T11:16:29;35.20;45.90
23251;DHT22;11794;49.730;10.088;2022-08-11T11:19:16;35.00;44.90
23251;DHT22;11794;49.730;10.088;2022-08-11T11:21:47;35.10;45.50
23251;DHT22;11794;49.730;10.088;2022-08-11T11:24:38;35.00;45.00
23251;DHT22;11794;49.730;10.088;2022-08-11T11:27:17;34.80;45.40
23251;DHT22;11794;49.730;10.088;2022-08-11T11:30:07;34.70;44.80
23251;DHT22;11794;49.730;10.088;2022-08-11T11:37:52;36.20;44.60
23251;DHT22;11794;49.730;10.088;2022-08-11T11:40:19;36.30;43.00
23251;DHT22;11794;49.730;10.088;2022-08-11T11:42:48;35.90;43.60
23251;DHT22;11794;49.730;10.088;2022-08-11T11:45:18;35.70;43.80
23251;DHT22;11794;49.730;10.088;2022-08-11T11:47:46;35.80;43.10
23251;DHT22;11794;49.730;10.088;2022-08-11T11:50:22;35.50;44.10
23251;DHT22;11794;49.730;10.088;2022-08-11T11:52:49;35.50;44.90
23251;DHT22;11794;49.730;10.088;2022-08-11T11:55:16;35.70;44.30
23251;DHT22;11794;49.730;10.088;2022-08-11T11:57:42;35.80;43.40
23251;DHT22;11794;49.730;10.088;2022-08-11T12:00:28;35.50;43.20
23251;DHT22;11794;49.730;10.088;2022-08-11T12:03:12;35.40;43.50
23251;DHT22;11794;49.730;10.088;2022-08-11T12:05:41;35.60;44.00
23251;DHT22;11794;49.730;10.088;2022-08-11T12:08:08;36.00;43.40
23251;DHT22;11794;49.730;10.088;2022-08-11T12:10:51;36.10;42.40
23251;DHT22;11794;49.730;10.088;2022-08-11T12:13:40;36.00;42.40
23251;DHT22;11794;49.730;10.088;2022-08-11T12:16:09;36.30;41.60
23251;DHT22;11794;49.730;10.088;2022-08-11T12:18:35;36.50;41.30
23251;DHT22;11794;49.730;10.088;2022-08-11T12:21:03;36.60;41.10
23251;DHT22;11794;49.730;10.088;2022-08-11T12:23:30;37.00;41.60
23251;DHT22;11794;49.730;10.088;2022-08-11T12:26:15;37.10;40.80
23251;DHT22;11794;49.730;10.088;2022-08-11T12:29:02;37.10;41.00
23251;DHT22;11794;49.730;10.088;2022-08-11T12:31:30;37.80;40.40
23251;DHT22;11794;49.730;10.088;2022-08-11T12:34:04;37.40;39.60
23251;DHT22;11794;49.730;10.088;2022-08-11T12:36:36;37.20;40.60
23251;DHT22;11794;49.730;10.088;2022-08-11T12:39:10;37.40;41.10
23251;DHT22;11794;49.730;10.088;2022-08-11T12:41:37;38.10;40.30
23251;DHT22;11794;49.730;10.088;2022-08-11T12:44:24;37.90;40.00
23251;DHT22;11794;49.730;10.088;2022-08-11T12:47:10;38.00;38.90
23251;DHT22;11794;49.730;10.088;2022-08-11T12:49:43;38.30;38.90
23251;DHT22;11794;49.730;10.088;2022-08-11T12:52:32;39.20;39.70
23251;DHT22;11794;49.730;10.088;2022-08-11T12:57:36;39.70;37.90
23251;DHT22;11794;49.730;10.088;2022-08-11T13:00:21;39.40;38.80
23251;DHT22;11794;49.730;10.088;2022-08-11T13:03:09;39.50;38.50
23251;DHT22;11794;49.730;10.088;2022-08-11T13:05:56;40.00;38.10
23251;DHT22;11794;49.730;10.088;2022-08-11T13:08:24;40.10;38.60
23251;DHT22;11794;49.730;10.088;2022-08-11T13:10:51;40.30;37.90
23251;DHT22;11794;49.730;10.088;2022-08-11T13:13:37;40.00;37.90
23251;DHT22;11794;49.730;10.088;2022-08-11T13:16:04;39.90;38.20
23251;DHT22;11794;49.730;10.088;2022-08-11T13:18:31;39.80;38.10
23251;DHT22;11794;49.730;10.088;2022-08-11T13:20:58;40.10;38.30
23251;DHT22;11794;49.730;10.088;2022-08-11T13:23:25;40.60;37.40
23251;DHT22;11794;49.730;10.088;2022-08-11T13:25:52;41.40;37.90
23251;DHT22;11794;49.730;10.088;2022-08-11T13:28:23;42.10;36.90
23251;DHT22;11794;49.730;10.088;2022-08-11T13:30:50;41.90;36.60
23251;DHT22;11794;49.730;10.088;2022-08-11T13:33:45;41.00;36.80
23251;DHT22;11794;49.730;10.088;2022-08-11T13:36:12;40.80;37.80
23251;DHT22;11794;49.730;10.088;2022-08-11T13:38:41;40.90;36.20
23251;DHT22;11794;49.730;10.088;2022-08-11T13:41:08;41.00;36.40
23251;DHT22;11794;49.730;10.088;2022-08-11T13:43:55;40.90;36.60
23251;DHT22;11794;49.730;10.088;2022-08-11T13:46:22;41.00;35.80
23251;DHT22;11794;49.730;10.088;2022-08-11T13:48:50;41.20;36.10
23251;DHT22;11794;49.730;10.088;2022-08-11T13:51:17;40.90;36.60
23251;DHT22;11794;49.730;10.088;2022-08-11T13:56:37;39.90;37.20
23251;DHT22;11794;49.730;10.088;2022-08-11T13:59:04;39.70;37.10
23251;DHT22;11794;49.730;10.088;2022-08-11T14:01:36;39.70;36.70
23251;DHT22;11794;49.730;10.088;2022-08-11T14:04:11;39.40;36.60
23251;DHT22;11794;49.730;10.088;2022-08-11T14:06:44;39.60;37.90
23251;DHT22;11794;49.730;10.088;2022-08-11T14:09:12;40.30;36.40
23251;DHT22;11794;49.730;10.088;2022-08-11T14:11:42;40.30;36.50
23251;DHT22;11794;49.730;10.088;2022-08-11T14:14:31;40.30;36.50
23251;DHT22;11794;49.730;10.088;2022-08-11T14:17:03;40.10;36.50
23251;DHT22;11794;49.730;10.088;2022-08-11T14:19:31;39.80;36.70
23251;DHT22;11794;49.730;10.088;2022-08-11T14:22:01;40.20;37.20
23251;DHT22;11794;49.730;10.088;2022-08-11T14:24:41;40.50;36.50
23251;DHT22;11794;49.730;10.088;2022-08-11T14:27:09;40.80;35.80
23251;DHT22;11794;49.730;10.088;2022-08-11T14:29:37;40.10;36.10
23251;DHT22;11794;49.730;10.088;2022-08-11T14:32:06;39.20;36.90
23251;DHT22;11794;49.730;10.088;2022-08-11T14:34:33;38.70;37.20
23251;DHT22;11794;49.730;10.088;2022-08-11T14:37:05;38.00;38.10
23251;DHT22;11794;49.730;10.088;2022-08-11T14:39:34;36.70;39.30
23251;DHT22;11794;49.730;10.088;2022-08-11T14:42:05;35.60;40.30
23251;DHT22;11794;49.730;10.088;2022-08-11T14:44:53;34.90;40.30
23251;DHT22;11794;49.730;10.088;2022-08-11T14:47:40;34.30;40.30
23251;DHT22;11794;49.730;10.088;2022-08-11T14:50:11;34.00;41.00
23251;DHT22;11794;49.730;10.088;2022-08-11T14:52:54;33.40;41.30
23251;DHT22;11794;49.730;10.088;2022-08-11T14:55:23;33.20;41.80
23251;DHT22;11794;49.730;10.088;2022-08-11T14:58:09;32.80;43.10
23251;DHT22;11794;49.730;10.088;2022-08-11T15:00:36;32.70;43.40
23251;DHT22;11794;49.730;10.088;2022-08-11T15:03:03;32.50;42.80
23251;DHT22;11794;49.730;10.088;2022-08-11T15:05:58;32.30;43.90
23251;DHT22;11794;49.730;10.088;2022-08-11T15:08:31;32.50;43.90
23251;DHT22;11794;49.730;10.088;2022-08-11T15:11:19;32.20;43.30
23251;DHT22;11794;49.730;10.088;2022-08-11T15:14:06;32.00;44.40
23251;DHT22;11794;49.730;10.088;2022-08-11T15:16:33;32.00;44.10
23251;DHT22;11794;49.730;10.088;2022-08-11T15:19:19;31.80;45.40
23251;DHT22;11794;49.730;10.088;2022-08-11T15:21:49;31.60;45.30
23251;DHT22;11794;49.730;10.088;2022-08-11T15:24:33;31.60;46.30
23251;DHT22;11794;49.730;10.088;2022-08-11T15:27:04;31.50;45.40
23251;DHT22;11794;49.730;10.088;2022-08-11T15:29:50;31.20;45.80
23251;DHT22;11794;49.730;10.088;2022-08-11T15:32:38;31.20;45.70
23251;DHT22;11794;49.730;10.088;2022-08-11T15:35:25;31.50;45.50
23251;DHT22;11794;49.730;10.088;2022-08-11T15:38:11;31.50;45.00
23251;DHT22;11794;49.730;10.088;2022-08-11T15:40:39;31.50;44.50
23251;DHT22;11794;49.730;10.088;2022-08-11T15:43:31;31.40;45.50
23251;DHT22;11794;49.730;10.088;2022-08-11T15:46:29;31.60;45.40
23251;DHT22;11794;49.730;10.088;2022-08-11T15:48:58;31.50;45.60
23251;DHT22;11794;49.730;10.088;2022-08-11T15:51:35;31.50;45.10
23251;DHT22;11794;49.730;10.088;2022-08-11T15:54:07;31.20;45.10
23251;DHT22;11794;49.730;10.088;2022-08-11T15:56:35;31.30;45.10
23251;DHT22;11794;49.730;10.088;2022-08-11T15:59:02;31.40;45.50
23251;DHT22;11794;49.730;10.088;2022-08-11T16:01:48;31.30;44.80
23251;DHT22;11794;49.730;10.088;2022-08-11T16:04:36;31.10;45.10
23251;DHT22;11794;49.730;10.088;2022-08-11T16:07:05;31.10;45.30
23251;DHT22;11794;49.730;10.088;2022-08-11T16:12:02;30.70;45.00
23251;DHT22;11794;49.730;10.088;2022-08-11T16:14:33;30.60;46.20
23251;DHT22;11794;49.730;10.088;2022-08-11T16:17:20;30.60;46.50
23251;DHT22;11794;49.730;10.088;2022-08-11T16:19:51;30.60;45.80
23251;DHT22;11794;49.730;10.088;2022-08-11T16:22:21;30.50;46.40
23251;DHT22;11794;49.730;10.088;2022-08-11T16:24:55;30.50;46.70
23251;DHT22;11794;49.730;10.088;2022-08-11T16:27:22;30.40;46.30
23251;DHT22;11794;49.730;10.088;2022-08-11T16:29:49;30.40;47.10
23251;DHT22;11794;49.730;10.088;2022-08-11T16:32:19;30.40;47.10
23251;DHT22;11794;49.730;10.088;2022-08-11T16:34:56;30.40;46.60
23251;DHT22;11794;49.730;10.088;2022-08-11T16:37:42;30.40;46.70
23251;DHT22;11794;49.730;10.088;2022-08-11T16:40:27;30.40;47.20
23251;DHT22;11794;49.730;10.088;2022-08-11T16:42:55;30.30;46.50
23251;DHT22;11794;49.730;10.088;2022-08-11T16:45:40;30.10;46.50
23251;DHT22;11794;49.730;10.088;2022-08-11T16:48:29;30.10;46.90
23251;DHT22;11794;49.730;10.088;2022-08-11T16:50:55;30.00;46.80
23251;DHT22;11794;49.730;10.088;2022-08-11T16:53:21;29.90;46.60
23251;DHT22;11794;49.730;10.088;2022-08-11T16:55:47;29.90;47.00
23251;DHT22;11794;49.730;10.088;2022-08-11T16:58:15;29.80;47.20
23251;DHT22;11794;49.730;10.088;2022-08-11T17:01:00;29.80;47.10
23251;DHT22;11794;49.730;10.088;2022-08-11T17:03:26;29.70;47.40
23251;DHT22;11794;49.730;10.088;2022-08-11T17:06:11;29.70;47.40
23251;DHT22;11794;49.730;10.088;2022-08-11T17:08:57;29.60;47.00
23251;DHT22;11794;49.730;10.088;2022-08-11T17:11:45;29.60;47.20
23251;DHT22;11794;49.730;10.088;2022-08-11T17:14:57;29.60;47.40
23251;DHT22;11794;49.730;10.088;2022-08-11T17:17:36;29.50;47.60
23251;DHT22;11794;49.730;10.088;2022-08-11T17:20:05;29.40;47.60
23251;DHT22;11794;49.730;10.088;2022-08-11T17:22:36;29.40;48.20
23251;DHT22;11794;49.730;10.088;2022-08-11T17:25:23;29.30;47.50
23251;DHT22;11794;49.730;10.088;2022-08-11T17:27:53;29.30;48.00
23251;DHT22;11794;49.730;10.088;2022-08-11T17:30:19;29.20;48.30
23251;DHT22;11794;49.730;10.088;2022-08-11T17:32:48;29.00;48.40
23251;DHT22;11794;49.730;10.088;2022-08-11T17:35:37;28.90;48.10
23251;DHT22;11794;49.730;10.088;2022-08-11T17:38:12;28.80;47.00
23251;DHT22;11794;49.730;10.088;2022-08-11T17:40:53;28.70;47.50
23251;DHT22;11794;49.730;10.088;2022-08-11T17:43:39;28.60;47.90
23251;DHT22;11794;49.730;10.088;2022-08-11T17:46:24;28.40;47.70
23251;DHT22;11794;49.730;10.088;2022-08-11T17:49:10;28.40;47.90
23251;DHT22;11794;49.730;10.088;2022-08-11T17:51:38;28.30;48.10
23251;DHT22;11794;49.730;10.088;2022-08-11T17:54:24;28.30;48.30
23251;DHT22;11794;49.730;10.088;2022-08-11T17:57:10;28.20;48.60
23251;DHT22;11794;49.730;10.088;2022-08-11T17:59:56;28.20;48.40
23251;DHT22;11794;49.730;10.088;2022-08-11T18:02:41;28.10;48.60
23251;DHT22;11794;49.730;10.088;2022-08-11T18:05:32;28.00;48.50
23251;DHT22;11794;49.730;10.088;2022-08-11T18:08:00;27.90;48.80
23251;DHT22;11794;49.730;10.088;2022-08-11T18:10:46;27.80;48.80
23251;DHT22;11794;49.730;10.088;2022-08-11T18:13:35;27.70;49.50
23251;DHT22;11794;49.730;10.088;2022-08-11T18:16:20;27.60;49.00
23251;DHT22;11794;49.730;10.088;2022-08-11T18:19:05;27.50;49.60
23251;DHT22;11794;49.730;10.088;2022-08-11T18:21:50;27.40;50.40
23251;DHT22;11794;49.730;10.088;2022-08-11T18:24:38;27.20;50.10
23251;DHT22;11794;49.730;10.088;2022-08-11T18:27:30;27.10;50.10
23251;DHT22;11794;49.730;10.088;2022-08-11T18:30:15;27.00;50.10
23251;DHT22;11794;49.730;10.088;2022-08-11T18:33:01;27.00;50.50
23251;DHT22;11794;49.730;10.088;2022-08-11T18:35:52;26.80;50.60
23251;DHT22;11794;49.730;10.088;2022-08-11T18:38:38;26.70;51.00
23251;DHT22;11794;49.730;10.088;2022-08-11T18:41:24;26.60;51.40
23251;DHT22;11794;49.730;10.088;2022-08-11T18:44:12;26.40;51.70
23251;DHT22;11794;49.730;10.088;2022-08-11T18:47:03;26.30;52.40
23251;DHT22;11794;49.730;10.088;2022-08-11T18:49:49;26.20;53.10
23251;DHT22;11794;49.730;10.088;2022-08-11T18:52:36;26.00;54.00
23251;DHT22;11794;49.730;10.088;2022-08-11T18:55:22;26.00;53.50
23251;DHT22;11794;49.730;10.088;2022-08-11T18:58:09;25.80;54.70
23251;DHT22;11794;49.730;10.088;2022-08-11T19:00:57;25.60;56.20
23251;DHT22;11794;49.730;10.088;2022-08-11T19:03:43;25.40;56.80
23251;DHT22;11794;49.730;10.088;2022-08-11T19:06:29;25.30;56.90
23251;DHT22;11794;49.730;10.088;2022-08-11T19:09:16;25.10;56.80
23251;DHT22;11794;49.730;10.088;2022-08-11T19:12:02;24.90;57.00
23251;DHT22;11794;49.730;10.088;2022-08-11T19:14:48;24.80;58.10